sensor_id;sensor_type;location;lat;lon;timestamp;P1;durP1;ratioP1;P2;durP2;ratioP2
4885;SDS011;2457;51.788;6.136;2023-04-01T00:01:03;4.30;;;1.30;;
4885;SDS011;2457;51.788;6.136;2023-04-01T00:03:32;6.27;;;1.40;;
4885;SDS011;2457;51.788;6.136;2023-04-01T00:05:59;3.60;;;1.00;;
4885;SDS011;2457;51.788;6.136;2023-04-01T00:08:27;6.13;;;1.23;;
4885;SDS011;2457;51.788;6.136;2023-04-01T00:10:54;3.47;;;1.03;;
4885;SDS011;2457;51.788;6.136;2023-04-01T00:13:23;4.53;;;0.87;;
4885;SDS011;2457;51.788;6.136;2023-04-01T00:15:51;5.43;;;1.20;;
4885;SDS011;2457;51.788;6.136;2023-04-01T00:18:19;4.27;;;1.10;;
4885;SDS011;2457;51.788;6.136;2023-04-01T00:20:47;5.70;;;1.30;;
4885;SDS011;2457;51.788;6.136;2023-04-01T00:23:14;3.40;;;1.00;;
4885;SDS011;2457;51.788;6.136;2023-04-01T00:25:42;5.60;;;1.00;;
4885;SDS011;2457;51.788;6.136;2023-04-01T00:28:09;3.93;;;1.17;;
4885;SDS011;2457;51.788;6.136;2023-04-01T00:30:36;3.80;;;1.00;;
4885;SDS011;2457;51.788;6.136;2023-04-01T00:33:04;6.70;;;1.27;;
4885;SDS011;2457;51.788;6.136;2023-04-01T00:35:31;4.53;;;1.37;;
4885;SDS011;2457;51.788;6.136;2023-04-01T00:37:59;6.30;;;1.20;;
4885;SDS011;2457;51.788;6.136;2023-04-01T00:40:31;4.10;;;1.13;;
4885;SDS011;2457;51.788;6.136;2023-04-01T00:42:58;3.67;;;1.10;;
4885;SDS011;2457;51.788;6.136;2023-04-01T00:45:26;3.63;;;1.00;;
4885;SDS011;2457;51.788;6.136;2023-04-01T00:47:54;7.83;;;1.23;;
4885;SDS011;2457;51.788;6.136;2023-04-01T00:50:22;6.40;;;1.13;;
4885;SDS011;2457;51.788;6.136;2023-04-01T00:52:50;5.00;;;1.30;;
4885;SDS011;2457;51.788;6.136;2023-04-01T00:55:18;4.03;;;1.10;;
4885;SDS011;2457;51.788;6.136;2023-04-01T00:57:46;4.50;;;1.20;;
4885;SDS011;2457;51.788;6.136;2023-04-01T01:00:15;3.87;;;1.00;;
4885;SDS011;2457;51.788;6.136;2023-04-01T01:02:43;3.97;;;0.90;;
4885;SDS011;2457;51.788;6.136;2023-04-01T01:05:14;3.87;;;1.07;;
4885;SDS011;2457;51.788;6.136;2023-04-01T01:10:21;6.00;;;1.27;;
4885;SDS011;2457;51.788;6.136;2023-04-01T01:12:40;4.43;;;1.00;;
4885;SDS011;2457;51.788;6.136;2023-04-01T01:23:34;3.93;;;1.00;;
4885;SDS011;2457;51.788;6.136;2023-04-01T01:28:58;3.70;;;1.00;;
4885;SDS011;2457;51.788;6.136;2023-04-01T01:31:25;5.83;;;1.20;;
4885;SDS011;2457;51.788;6.136;2023-04-01T01:34:15;3.87;;;1.20;;
4885;SDS011;2457;51.788;6.136;2023-04-01T01:36:41;4.37;;;1.10;;
4885;SDS011;2457;51.788;6.136;2023-04-01T01:39:11;3.20;;;1.10;;
4885;SDS011;2457;51.788;6.136;2023-04-01T01:41:39;3.20;;;1.10;;
4885;SDS011;2457;51.788;6.136;2023-04-01T01:44:08;4.10;;;1.20;;
4885;SDS011;2457;51.788;6.136;2023-04-01T01:46:36;3.67;;;1.00;;
4885;SDS011;2457;51.788;6.136;2023-04-01T01:49:05;3.63;;;1.00;;
4885;SDS011;2457;51.788;6.136;2023-04-01T01:51:34;3.93;;;1.00;;
4885;SDS011;2457;51.788;6.136;2023-04-01T01:54:01;5.33;;;1.70;;
4885;SDS011;2457;51.788;6.136;2023-04-01T01:56:28;3.20;;;1.17;;
4885;SDS011;2457;51.788;6.136;2023-04-01T01:59:05;4.53;;;1.20;;
4885;SDS011;2457;51.788;6.136;2023-04-01T02:01:29;3.37;;;1.43;;
4885;SDS011;2457;51.788;6.136;2023-04-01T02:03:57;4.53;;;1.63;;
4885;SDS011;2457;51.788;6.136;2023-04-01T02:06:26;3.87;;;1.30;;
4885;SDS011;2457;51.788;6.136;2023-04-01T02:08:54;3.70;;;1.27;;
4885;SDS011;2457;51.788;6.136;2023-04-01T02:11:33;4.30;;;1.20;;
4885;SDS011;2457;51.788;6.136;2023-04-01T02:14:08;3.30;;;1.20;;
4885;SDS011;2457;51.788;6.136;2023-04-01T02:16:36;4.17;;;1.47;;
4885;SDS011;2457;51.788;6.136;2023-04-01T02:19:03;4.30;;;1.30;;
4885;SDS011;2457;51.788;6.136;2023-04-01T02:21:33;3.73;;;1.43;;
4885;SDS011;2457;51.788;6.136;2023-04-01T02:24:02;3.60;;;1.40;;
4885;SDS011;2457;51.788;6.136;2023-04-01T02:26:30;3.27;;;1.43;;
4885;SDS011;2457;51.788;6.136;2023-04-01T02:28:58;4.23;;;1.30;;
4885;SDS011;2457;51.788;6.136;2023-04-01T02:31:26;3.80;;;1.60;;
4885;SDS011;2457;51.788;6.136;2023-04-01T02:33:54;3.70;;;1.50;;
4885;SDS011;2457;51.788;6.136;2023-04-01T02:36:21;4.00;;;1.50;;
4885;SDS011;2457;51.788;6.136;2023-04-01T02:38:48;3.63;;;1.40;;
4885;SDS011;2457;51.788;6.136;2023-04-01T02:41:16;4.20;;;1.60;;
4885;SDS011;2457;51.788;6.136;2023-04-01T02:43:43;3.87;;;1.50;;
4885;SDS011;2457;51.788;6.136;2023-04-01T02:46:11;4.10;;;1.60;;
4885;SDS011;2457;51.788;6.136;2023-04-01T02:48:38;4.50;;;1.83;;
4885;SDS011;2457;51.788;6.136;2023-04-01T02:51:06;4.10;;;1.80;;
4885;SDS011;2457;51.788;6.136;2023-04-01T02:53:33;3.70;;;1.63;;
4885;SDS011;2457;51.788;6.136;2023-04-01T02:56:00;4.27;;;2.00;;
4885;SDS011;2457;51.788;6.136;2023-04-01T02:58:27;4.30;;;2.00;;
4885;SDS011;2457;51.788;6.136;2023-04-01T03:00:55;4.33;;;1.80;;
4885;SDS011;2457;51.788;6.136;2023-04-01T03:03:22;4.33;;;1.97;;
4885;SDS011;2457;51.788;6.136;2023-04-01T03:05:49;5.67;;;1.90;;
4885;SDS011;2457;51.788;6.136;2023-04-01T03:08:16;4.90;;;1.87;;
4885;SDS011;2457;51.788;6.136;2023-04-01T03:10:44;4.40;;;2.13;;
4885;SDS011;2457;51.788;6.136;2023-04-01T03:13:11;4.80;;;2.30;;
4885;SDS011;2457;51.788;6.136;2023-04-01T03:15:38;4.10;;;2.00;;
4885;SDS011;2457;51.788;6.136;2023-04-01T03:18:06;4.50;;;2.10;;
4885;SDS011;2457;51.788;6.136;2023-04-01T03:20:33;4.37;;;2.27;;
4885;SDS011;2457;51.788;6.136;2023-04-01T03:23:00;4.20;;;2.20;;
4885;SDS011;2457;51.788;6.136;2023-04-01T03:25:28;4.70;;;2.10;;
4885;SDS011;2457;51.788;6.136;2023-04-01T03:27:56;4.97;;;2.30;;
4885;SDS011;2457;51.788;6.136;2023-04-01T03:30:26;4.70;;;2.30;;
4885;SDS011;2457;51.788;6.136;2023-04-01T03:32:53;3.90;;;1.97;;
4885;SDS011;2457;51.788;6.136;2023-04-01T03:35:20;5.57;;;2.23;;
4885;SDS011;2457;51.788;6.136;2023-04-01T03:37:48;5.20;;;2.40;;
4885;SDS011;2457;51.788;6.136;2023-04-01T03:40:15;6.60;;;2.30;;
4885;SDS011;2457;51.788;6.136;2023-04-01T03:42:42;5.20;;;2.30;;
4885;SDS011;2457;51.788;6.136;2023-04-01T03:45:11;4.30;;;2.10;;
4885;SDS011;2457;51.788;6.136;2023-04-01T03:47:39;3.87;;;1.87;;
4885;SDS011;2457;51.788;6.136;2023-04-01T03:50:06;4.30;;;2.10;;
4885;SDS011;2457;51.788;6.136;2023-04-01T03:52:34;3.87;;;1.90;;
4885;SDS011;2457;51.788;6.136;2023-04-01T03:55:01;4.33;;;2.10;;
4885;SDS011;2457;51.788;6.136;2023-04-01T03:57:30;4.70;;;2.13;;
4885;SDS011;2457;51.788;6.136;2023-04-01T03:59:58;4.17;;;1.83;;
4885;SDS011;2457;51.788;6.136;2023-04-01T04:02:25;4.33;;;1.93;;
4885;SDS011;2457;51.788;6.136;2023-04-01T04:04:52;4.23;;;2.13;;
4885;SDS011;2457;51.788;6.136;2023-04-01T04:07:19;5.00;;;2.53;;
4885;SDS011;2457;51.788;6.136;2023-04-01T04:09:47;4.50;;;2.10;;
4885;SDS011;2457;51.788;6.136;2023-04-01T04:12:14;4.30;;;2.20;;
4885;SDS011;2457;51.788;6.136;2023-04-01T04:14:41;5.80;;;2.80;;
4885;SDS011;2457;51.788;6.136;2023-04-01T04:17:11;4.40;;;2.30;;
4885;SDS011;2457;51.788;6.136;2023-04-01T04:19:40;4.30;;;2.27;;
4885;SDS011;2457;51.788;6.136;2023-04-01T04:22:07;4.83;;;2.27;;
4885;SDS011;2457;51.788;6.136;2023-04-01T04:24:35;4.80;;;2.60;;
4885;SDS011;2457;51.788;6.136;2023-04-01T04:27:03;5.40;;;2.87;;
4885;SDS011;2457;51.788;6.136;2023-04-01T04:29:30;5.50;;;2.90;;
4885;SDS011;2457;51.788;6.136;2023-04-01T04:31:57;5.07;;;2.60;;
4885;SDS011;2457;51.788;6.136;2023-04-01T04:34:24;6.40;;;3.10;;
4885;SDS011;2457;51.788;6.136;2023-04-01T04:36:52;5.37;;;2.97;;
4885;SDS011;2457;51.788;6.136;2023-04-01T04:39:19;4.93;;;2.30;;
4885;SDS011;2457;51.788;6.136;2023-04-01T04:41:46;9.47;;;2.83;;
4885;SDS011;2457;51.788;6.136;2023-04-01T04:44:14;5.50;;;3.07;;
4885;SDS011;2457;51.788;6.136;2023-04-01T04:46:41;7.17;;;2.73;;
4885;SDS011;2457;51.788;6.136;2023-04-01T04:49:08;5.00;;;2.70;;
4885;SDS011;2457;51.788;6.136;2023-04-01T04:51:35;6.10;;;2.93;;
4885;SDS011;2457;51.788;6.136;2023-04-01T04:54:03;6.17;;;3.07;;
4885;SDS011;2457;51.788;6.136;2023-04-01T04:56:30;5.07;;;2.40;;
4885;SDS011;2457;51.788;6.136;2023-04-01T04:58:57;5.90;;;2.90;;
4885;SDS011;2457;51.788;6.136;2023-04-01T05:01:25;6.90;;;2.40;;
4885;SDS011;2457;51.788;6.136;2023-04-01T05:03:52;4.53;;;2.13;;
4885;SDS011;2457;51.788;6.136;2023-04-01T05:06:20;4.90;;;2.50;;
4885;SDS011;2457;51.788;6.136;2023-04-01T05:08:47;5.00;;;2.30;;
4885;SDS011;2457;51.788;6.136;2023-04-01T05:11:15;4.63;;;2.30;;
4885;SDS011;2457;51.788;6.136;2023-04-01T05:13:43;5.83;;;2.60;;
4885;SDS011;2457;51.788;6.136;2023-04-01T05:16:12;4.57;;;2.00;;
4885;SDS011;2457;51.788;6.136;2023-04-01T05:18:40;4.30;;;1.80;;
4885;SDS011;2457;51.788;6.136;2023-04-01T05:21:08;4.37;;;2.00;;
4885;SDS011;2457;51.788;6.136;2023-04-01T05:23:36;4.03;;;1.80;;
4885;SDS011;2457;51.788;6.136;2023-04-01T05:26:08;4.30;;;1.60;;
4885;SDS011;2457;51.788;6.136;2023-04-01T05:28:35;4.23;;;1.70;;
4885;SDS011;2457;51.788;6.136;2023-04-01T05:31:03;3.57;;;1.50;;
4885;SDS011;2457;51.788;6.136;2023-04-01T05:33:30;3.90;;;1.80;;
4885;SDS011;2457;51.788;6.136;2023-04-01T05:36:05;4.00;;;2.00;;
4885;SDS011;2457;51.788;6.136;2023-04-01T05:38:26;4.00;;;1.90;;
4885;SDS011;2457;51.788;6.136;2023-04-01T05:40:58;5.93;;;2.00;;
4885;SDS011;2457;51.788;6.136;2023-04-01T05:43:22;5.43;;;2.17;;
4885;SDS011;2457;51.788;6.136;2023-04-01T05:45:50;4.13;;;1.80;;
4885;SDS011;2457;51.788;6.136;2023-04-01T05:48:17;3.87;;;1.73;;
4885;SDS011;2457;51.788;6.136;2023-04-01T05:50:44;3.77;;;1.80;;
4885;SDS011;2457;51.788;6.136;2023-04-01T05:53:11;3.90;;;1.73;;
4885;SDS011;2457;51.788;6.136;2023-04-01T05:55:39;3.60;;;1.60;;
4885;SDS011;2457;51.788;6.136;2023-04-01T05:58:06;4.27;;;1.57;;
4885;SDS011;2457;51.788;6.136;2023-04-01T06:00:33;4.57;;;1.67;;
4885;SDS011;2457;51.788;6.136;2023-04-01T06:03:00;4.10;;;1.83;;
4885;SDS011;2457;51.788;6.136;2023-04-01T06:05:29;4.33;;;1.90;;
4885;SDS011;2457;51.788;6.136;2023-04-01T06:08:00;4.37;;;2.00;;
4885;SDS011;2457;51.788;6.136;2023-04-01T06:10:37;4.20;;;1.70;;
4885;SDS011;2457;51.788;6.136;2023-04-01T06:13:06;3.53;;;1.67;;
4885;SDS011;2457;51.788;6.136;2023-04-01T06:15:36;4.00;;;2.00;;
4885;SDS011;2457;51.788;6.136;2023-04-01T06:23:20;3.93;;;1.80;;
4885;SDS011;2457;51.788;6.136;2023-04-01T06:33:46;5.57;;;2.70;;
4885;SDS011;2457;51.788;6.136;2023-04-01T06:38:59;5.60;;;3.00;;
4885;SDS011;2457;51.788;6.136;2023-04-01T06:41:44;6.83;;;3.70;;
4885;SDS011;2457;51.788;6.136;2023-04-01T06:44:12;5.87;;;3.00;;
4885;SDS011;2457;51.788;6.136;2023-04-01T06:46:55;5.70;;;3.00;;
4885;SDS011;2457;51.788;6.136;2023-04-01T06:49:25;7.10;;;3.47;;
4885;SDS011;2457;51.788;6.136;2023-04-01T06:54:36;5.03;;;2.60;;
4885;SDS011;2457;51.788;6.136;2023-04-01T06:57:13;6.00;;;3.03;;
4885;SDS011;2457;51.788;6.136;2023-04-01T06:59:33;6.40;;;3.37;;
4885;SDS011;2457;51.788;6.136;2023-04-01T07:02:20;6.33;;;3.20;;
4885;SDS011;2457;51.788;6.136;2023-04-01T07:04:46;5.90;;;2.70;;
4885;SDS011;2457;51.788;6.136;2023-04-01T07:07:31;6.57;;;3.43;;
4885;SDS011;2457;51.788;6.136;2023-04-01T07:09:51;6.07;;;3.33;;
4885;SDS011;2457;51.788;6.136;2023-04-01T07:12:27;7.33;;;3.60;;
4885;SDS011;2457;51.788;6.136;2023-04-01T07:14:47;6.77;;;3.60;;
4885;SDS011;2457;51.788;6.136;2023-04-01T07:17:23;6.83;;;3.20;;
4885;SDS011;2457;51.788;6.136;2023-04-01T07:19:51;6.80;;;3.53;;
4885;SDS011;2457;51.788;6.136;2023-04-01T07:22:23;7.53;;;3.87;;
4885;SDS011;2457;51.788;6.136;2023-04-01T07:24:49;6.97;;;3.37;;
4885;SDS011;2457;51.788;6.136;2023-04-01T07:27:16;7.47;;;3.70;;
4885;SDS011;2457;51.788;6.136;2023-04-01T07:29:44;6.90;;;3.40;;
4885;SDS011;2457;51.788;6.136;2023-04-01T07:35:00;9.07;;;4.07;;
4885;SDS011;2457;51.788;6.136;2023-04-01T07:37:32;7.80;;;4.40;;
4885;SDS011;2457;51.788;6.136;2023-04-01T07:40:03;7.03;;;3.63;;
4885;SDS011;2457;51.788;6.136;2023-04-01T07:44:59;8.57;;;4.50;;
4885;SDS011;2457;51.788;6.136;2023-04-01T07:47:30;11.70;;;4.43;;
4885;SDS011;2457;51.788;6.136;2023-04-01T07:52:59;6.63;;;3.70;;
4885;SDS011;2457;51.788;6.136;2023-04-01T07:55:23;7.87;;;3.80;;
4885;SDS011;2457;51.788;6.136;2023-04-01T08:00:38;6.33;;;3.57;;
4885;SDS011;2457;51.788;6.136;2023-04-01T08:03:07;10.23;;;4.30;;
4885;SDS011;2457;51.788;6.136;2023-04-01T08:05:40;7.03;;;3.07;;
4885;SDS011;2457;51.788;6.136;2023-04-01T08:13:36;5.40;;;2.87;;
4885;SDS011;2457;51.788;6.136;2023-04-01T08:16:07;7.60;;;3.63;;
4885;SDS011;2457;51.788;6.136;2023-04-01T08:21:13;6.40;;;3.60;;
4885;SDS011;2457;51.788;6.136;2023-04-01T08:23:47;7.40;;;3.70;;
4885;SDS011;2457;51.788;6.136;2023-04-01T08:29:12;6.13;;;2.97;;
4885;SDS011;2457;51.788;6.136;2023-04-01T08:31:51;5.83;;;3.20;;
4885;SDS011;2457;51.788;6.136;2023-04-01T08:34:14;5.73;;;2.83;;
4885;SDS011;2457;51.788;6.136;2023-04-01T08:36:42;6.53;;;2.90;;
4885;SDS011;2457;51.788;6.136;2023-04-01T08:39:10;6.40;;;3.17;;
4885;SDS011;2457;51.788;6.136;2023-04-01T08:41:53;6.60;;;3.17;;
4885;SDS011;2457;51.788;6.136;2023-04-01T08:52:33;5.53;;;2.90;;
4885;SDS011;2457;51.788;6.136;2023-04-01T08:57:42;6.60;;;2.27;;
4885;SDS011;2457;51.788;6.136;2023-04-01T09:00:22;4.70;;;1.90;;
4885;SDS011;2457;51.788;6.136;2023-04-01T09:05:35;5.60;;;2.73;;
4885;SDS011;2457;51.788;6.136;2023-04-01T09:08:19;4.00;;;1.67;;
4885;SDS011;2457;51.788;6.136;2023-04-01T09:13:35;5.73;;;2.03;;
4885;SDS011;2457;51.788;6.136;2023-04-01T09:16:06;4.60;;;1.70;;
4885;SDS011;2457;51.788;6.136;2023-04-01T09:21:07;4.20;;;1.50;;
4885;SDS011;2457;51.788;6.136;2023-04-01T09:26:24;4.10;;;1.70;;
4885;SDS011;2457;51.788;6.136;2023-04-01T09:28:55;5.50;;;2.40;;
4885;SDS011;2457;51.788;6.136;2023-04-01T09:36:35;4.43;;;2.07;;
4885;SDS011;2457;51.788;6.136;2023-04-01T09:39:03;5.30;;;2.40;;
4885;SDS011;2457;51.788;6.136;2023-04-01T09:41:32;5.00;;;2.40;;
4885;SDS011;2457;51.788;6.136;2023-04-01T09:44:04;5.70;;;2.70;;
4885;SDS011;2457;51.788;6.136;2023-04-01T09:52:37;5.43;;;2.53;;
4885;SDS011;2457;51.788;6.136;2023-04-01T09:59:59;6.50;;;2.33;;
4885;SDS011;2457;51.788;6.136;2023-04-01T10:05:22;4.17;;;1.80;;
4885;SDS011;2457;51.788;6.136;2023-04-01T10:08:07;3.97;;;1.60;;
4885;SDS011;2457;51.788;6.136;2023-04-01T10:13:32;4.50;;;1.93;;
4885;SDS011;2457;51.788;6.136;2023-04-01T10:16:04;4.80;;;1.87;;
4885;SDS011;2457;51.788;6.136;2023-04-01T10:29:14;4.93;;;2.10;;
4885;SDS011;2457;51.788;6.136;2023-04-01T10:31:43;4.87;;;1.83;;
4885;SDS011;2457;51.788;6.136;2023-04-01T10:36:54;6.03;;;2.60;;
4885;SDS011;2457;51.788;6.136;2023-04-01T10:42:13;5.70;;;2.57;;
4885;SDS011;2457;51.788;6.136;2023-04-01T10:52:48;5.40;;;2.30;;
4885;SDS011;2457;51.788;6.136;2023-04-01T10:55:23;6.90;;;2.90;;
4885;SDS011;2457;51.788;6.136;2023-04-01T11:13:26;8.87;;;3.70;;
4885;SDS011;2457;51.788;6.136;2023-04-01T11:21:33;8.53;;;4.57;;
4885;SDS011;2457;51.788;6.136;2023-04-01T11:26:52;8.10;;;3.70;;
4885;SDS011;2457;51.788;6.136;2023-04-01T11:32:11;8.77;;;4.30;;
4885;SDS011;2457;51.788;6.136;2023-04-01T11:37:30;7.80;;;4.30;;
4885;SDS011;2457;51.788;6.136;2023-04-01T11:42:47;8.70;;;3.97;;
4885;SDS011;2457;51.788;6.136;2023-04-01T11:45:36;10.70;;;4.43;;
4885;SDS011;2457;51.788;6.136;2023-04-01T11:48:19;8.27;;;3.90;;
4885;SDS011;2457;51.788;6.136;2023-04-01T11:50:58;7.40;;;3.67;;
4885;SDS011;2457;51.788;6.136;2023-04-01T11:53:35;6.00;;;3.43;;
4885;SDS011;2457;51.788;6.136;2023-04-01T11:58:52;8.53;;;3.60;;
4885;SDS011;2457;51.788;6.136;2023-04-01T12:09:25;5.70;;;2.90;;
4885;SDS011;2457;51.788;6.136;2023-04-01T12:11:53;6.97;;;3.07;;
4885;SDS011;2457;51.788;6.136;2023-04-01T12:14:27;6.47;;;3.50;;
4885;SDS011;2457;51.788;6.136;2023-04-01T12:17:13;6.53;;;3.67;;
4885;SDS011;2457;51.788;6.136;2023-04-01T12:19:38;6.90;;;3.33;;
4885;SDS011;2457;51.788;6.136;2023-04-01T12:22:23;6.70;;;3.33;;
4885;SDS011;2457;51.788;6.136;2023-04-01T12:24:56;6.63;;;3.43;;
4885;SDS011;2457;51.788;6.136;2023-04-01T12:30:22;6.93;;;3.70;;
4885;SDS011;2457;51.788;6.136;2023-04-01T12:35:54;9.33;;;4.43;;
4885;SDS011;2457;51.788;6.136;2023-04-01T12:38:23;7.90;;;4.20;;
4885;SDS011;2457;51.788;6.136;2023-04-01T12:40:52;6.23;;;3.50;;
4885;SDS011;2457;51.788;6.136;2023-04-01T12:48:54;7.77;;;3.87;;
4885;SDS011;2457;51.788;6.136;2023-04-01T13:01:59;8.90;;;4.20;;
4885;SDS011;2457;51.788;6.136;2023-04-01T13:09:42;11.03;;;4.33;;
4885;SDS011;2457;51.788;6.136;2023-04-01T13:17:32;7.33;;;3.63;;
4885;SDS011;2457;51.788;6.136;2023-04-01T13:20:03;7.20;;;3.37;;
4885;SDS011;2457;51.788;6.136;2023-04-01T13:22:30;6.50;;;3.53;;
4885;SDS011;2457;51.788;6.136;2023-04-01T13:24:59;6.53;;;3.50;;
4885;SDS011;2457;51.788;6.136;2023-04-01T13:27:25;9.60;;;3.70;;
4885;SDS011;2457;51.788;6.136;2023-04-01T13:30:02;7.00;;;3.50;;
4885;SDS011;2457;51.788;6.136;2023-04-01T13:32:29;5.97;;;2.47;;
4885;SDS011;2457;51.788;6.136;2023-04-01T13:34:59;5.20;;;2.73;;
4885;SDS011;2457;51.788;6.136;2023-04-01T13:37:30;6.67;;;2.23;;
4885;SDS011;2457;51.788;6.136;2023-04-01T13:42:28;6.47;;;1.83;;
4885;SDS011;2457;51.788;6.136;2023-04-01T13:45:15;4.77;;;1.80;;
4885;SDS011;2457;51.788;6.136;2023-04-01T13:55:46;4.80;;;1.60;;
4885;SDS011;2457;51.788;6.136;2023-04-01T14:03:41;4.13;;;1.57;;
4885;SDS011;2457;51.788;6.136;2023-04-01T14:09:02;4.20;;;1.60;;
4885;SDS011;2457;51.788;6.136;2023-04-01T14:16:44;5.03;;;2.17;;
4885;SDS011;2457;51.788;6.136;2023-04-01T14:19:16;4.63;;;1.97;;
4885;SDS011;2457;51.788;6.136;2023-04-01T14:21:48;4.33;;;1.73;;
4885;SDS011;2457;51.788;6.136;2023-04-01T14:29:45;5.00;;;1.80;;
4885;SDS011;2457;51.788;6.136;2023-04-01T14:32:17;4.23;;;1.53;;
4885;SDS011;2457;51.788;6.136;2023-04-01T14:40:19;4.23;;;1.60;;
4885;SDS011;2457;51.788;6.136;2023-04-01T14:50:47;4.83;;;1.80;;
4885;SDS011;2457;51.788;6.136;2023-04-01T14:55:53;5.03;;;1.97;;
4885;SDS011;2457;51.788;6.136;2023-04-01T14:58:22;4.70;;;1.80;;
4885;SDS011;2457;51.788;6.136;2023-04-01T15:03:57;3.70;;;1.10;;
4885;SDS011;2457;51.788;6.136;2023-04-01T15:09:29;6.20;;;1.40;;
4885;SDS011;2457;51.788;6.136;2023-04-01T15:17:14;4.10;;;1.10;;
4885;SDS011;2457;51.788;6.136;2023-04-01T15:19:41;5.10;;;1.30;;
4885;SDS011;2457;51.788;6.136;2023-04-01T15:33:14;3.50;;;1.00;;
4885;SDS011;2457;51.788;6.136;2023-04-01T15:38:27;4.20;;;1.10;;
4885;SDS011;2457;51.788;6.136;2023-04-01T15:43:27;3.20;;;0.90;;
4885;SDS011;2457;51.788;6.136;2023-04-01T15:51:11;4.70;;;1.00;;
4885;SDS011;2457;51.788;6.136;2023-04-01T15:53:50;3.20;;;0.90;;
4885;SDS011;2457;51.788;6.136;2023-04-01T15:56:19;4.90;;;1.20;;
4885;SDS011;2457;51.788;6.136;2023-04-01T16:04:03;3.67;;;1.10;;
4885;SDS011;2457;51.788;6.136;2023-04-01T16:06:34;8.97;;;1.13;;
4885;SDS011;2457;51.788;6.136;2023-04-01T16:32:51;3.83;;;1.20;;
4885;SDS011;2457;51.788;6.136;2023-04-01T16:35:28;6.50;;;1.13;;
4885;SDS011;2457;51.788;6.136;2023-04-01T16:37:54;5.10;;;1.20;;
4885;SDS011;2457;51.788;6.136;2023-04-01T16:40:25;3.83;;;1.20;;
4885;SDS011;2457;51.788;6.136;2023-04-01T16:48:05;3.77;;;1.27;;
4885;SDS011;2457;51.788;6.136;2023-04-01T16:50:28;3.40;;;1.20;;
4885;SDS011;2457;51.788;6.136;2023-04-01T16:53:00;3.90;;;1.30;;
4885;SDS011;2457;51.788;6.136;2023-04-01T16:55:48;4.90;;;2.23;;
4885;SDS011;2457;51.788;6.136;2023-04-01T16:58:18;4.13;;;1.90;;
4885;SDS011;2457;51.788;6.136;2023-04-01T17:00:50;6.07;;;2.27;;
4885;SDS011;2457;51.788;6.136;2023-04-01T17:03:24;5.13;;;2.17;;
4885;SDS011;2457;51.788;6.136;2023-04-01T17:05:52;6.47;;;2.37;;
4885;SDS011;2457;51.788;6.136;2023-04-01T17:08:36;4.23;;;2.10;;
4885;SDS011;2457;51.788;6.136;2023-04-01T17:11:02;4.43;;;2.20;;
4885;SDS011;2457;51.788;6.136;2023-04-01T17:13:30;5.93;;;2.20;;
4885;SDS011;2457;51.788;6.136;2023-04-01T17:18:49;11.47;;;5.83;;
4885;SDS011;2457;51.788;6.136;2023-04-01T17:21:18;6.10;;;2.63;;
4885;SDS011;2457;51.788;6.136;2023-04-01T17:23:49;5.17;;;2.27;;
4885;SDS011;2457;51.788;6.136;2023-04-01T17:26:20;4.23;;;1.93;;
4885;SDS011;2457;51.788;6.136;2023-04-01T17:28:52;4.17;;;2.10;;
4885;SDS011;2457;51.788;6.136;2023-04-01T17:34:03;3.90;;;1.80;;
4885;SDS011;2457;51.788;6.136;2023-04-01T17:42:04;4.87;;;2.37;;
4885;SDS011;2457;51.788;6.136;2023-04-01T17:44:44;5.27;;;1.50;;
4885;SDS011;2457;51.788;6.136;2023-04-01T17:47:10;4.20;;;1.83;;
4885;SDS011;2457;51.788;6.136;2023-04-01T17:54:52;3.80;;;1.40;;
4885;SDS011;2457;51.788;6.136;2023-04-01T18:02:29;4.77;;;2.13;;
4885;SDS011;2457;51.788;6.136;2023-04-01T18:08:00;5.00;;;2.40;;
4885;SDS011;2457;51.788;6.136;2023-04-01T18:10:41;4.70;;;2.40;;
4885;SDS011;2457;51.788;6.136;2023-04-01T18:13:14;5.37;;;2.80;;
4885;SDS011;2457;51.788;6.136;2023-04-01T18:21:16;4.20;;;2.07;;
4885;SDS011;2457;51.788;6.136;2023-04-01T18:23:51;5.13;;;2.30;;
4885;SDS011;2457;51.788;6.136;2023-04-01T18:26:21;5.00;;;2.43;;
4885;SDS011;2457;51.788;6.136;2023-04-01T18:28:56;4.60;;;2.50;;
4885;SDS011;2457;51.788;6.136;2023-04-01T18:31:25;4.50;;;2.10;;
4885;SDS011;2457;51.788;6.136;2023-04-01T18:36:44;4.57;;;2.20;;
4885;SDS011;2457;51.788;6.136;2023-04-01T18:39:14;4.60;;;2.50;;
4885;SDS011;2457;51.788;6.136;2023-04-01T18:42:00;5.33;;;2.30;;
4885;SDS011;2457;51.788;6.136;2023-04-01T18:47:37;5.20;;;2.47;;
4885;SDS011;2457;51.788;6.136;2023-04-01T18:50:06;4.90;;;2.60;;
4885;SDS011;2457;51.788;6.136;2023-04-01T18:52:34;5.87;;;2.80;;
4885;SDS011;2457;51.788;6.136;2023-04-01T18:57:41;4.80;;;2.43;;
4885;SDS011;2457;51.788;6.136;2023-04-01T19:00:13;5.53;;;2.63;;
4885;SDS011;2457;51.788;6.136;2023-04-01T19:02:38;5.70;;;2.83;;
4885;SDS011;2457;51.788;6.136;2023-04-01T19:05:11;4.90;;;2.50;;
4885;SDS011;2457;51.788;6.136;2023-04-01T19:07:53;5.13;;;2.13;;
4885;SDS011;2457;51.788;6.136;2023-04-01T19:10:27;4.83;;;2.60;;
4885;SDS011;2457;51.788;6.136;2023-04-01T19:13:05;4.50;;;2.37;;
4885;SDS011;2457;51.788;6.136;2023-04-01T19:20:52;4.10;;;1.90;;
4885;SDS011;2457;51.788;6.136;2023-04-01T19:23:29;4.23;;;2.03;;
4885;SDS011;2457;51.788;6.136;2023-04-01T19:25:54;7.17;;;3.07;;
4885;SDS011;2457;51.788;6.136;2023-04-01T19:28:32;5.90;;;2.80;;
4885;SDS011;2457;51.788;6.136;2023-04-01T19:30:57;4.83;;;2.60;;
4885;SDS011;2457;51.788;6.136;2023-04-01T19:43:54;4.63;;;1.90;;
4885;SDS011;2457;51.788;6.136;2023-04-01T19:46:35;4.47;;;1.90;;
4885;SDS011;2457;51.788;6.136;2023-04-01T19:49:14;4.33;;;2.17;;
4885;SDS011;2457;51.788;6.136;2023-04-01T19:51:46;4.10;;;2.00;;
4885;SDS011;2457;51.788;6.136;2023-04-01T19:54:23;5.60;;;2.33;;
4885;SDS011;2457;51.788;6.136;2023-04-01T19:56:56;4.17;;;2.17;;
4885;SDS011;2457;51.788;6.136;2023-04-01T19:59:42;4.07;;;1.90;;
4885;SDS011;2457;51.788;6.136;2023-04-01T20:04:48;4.57;;;2.20;;
4885;SDS011;2457;51.788;6.136;2023-04-01T20:07:21;3.77;;;1.67;;
4885;SDS011;2457;51.788;6.136;2023-04-01T20:09:54;4.27;;;2.20;;
4885;SDS011;2457;51.788;6.136;2023-04-01T20:15:04;4.23;;;1.90;;
4885;SDS011;2457;51.788;6.136;2023-04-01T20:17:32;4.33;;;1.90;;
4885;SDS011;2457;51.788;6.136;2023-04-01T20:20:00;4.47;;;2.20;;
4885;SDS011;2457;51.788;6.136;2023-04-01T20:25:17;3.73;;;1.90;;
4885;SDS011;2457;51.788;6.136;2023-04-01T20:27:55;4.60;;;2.20;;
4885;SDS011;2457;51.788;6.136;2023-04-01T20:33:06;3.80;;;1.80;;
4885;SDS011;2457;51.788;6.136;2023-04-01T20:41:06;4.00;;;1.80;;
4885;SDS011;2457;51.788;6.136;2023-04-01T20:43:40;3.60;;;1.73;;
4885;SDS011;2457;51.788;6.136;2023-04-01T20:46:11;4.30;;;1.93;;
4885;SDS011;2457;51.788;6.136;2023-04-01T20:51:34;4.07;;;1.83;;
4885;SDS011;2457;51.788;6.136;2023-04-01T20:59:43;4.50;;;1.90;;
4885;SDS011;2457;51.788;6.136;2023-04-01T21:02:13;3.80;;;1.70;;
4885;SDS011;2457;51.788;6.136;2023-04-01T21:04:42;3.67;;;1.70;;
4885;SDS011;2457;51.788;6.136;2023-04-01T21:07:49;4.10;;;1.53;;
4885;SDS011;2457;51.788;6.136;2023-04-01T21:10:16;4.63;;;2.03;;
4885;SDS011;2457;51.788;6.136;2023-04-01T21:12:16;3.57;;;1.47;;
4885;SDS011;2457;51.788;6.136;2023-04-01T21:14:55;3.73;;;1.50;;
4885;SDS011;2457;51.788;6.136;2023-04-01T21:17:38;3.83;;;1.53;;
4885;SDS011;2457;51.788;6.136;2023-04-01T21:20:19;3.70;;;1.50;;
4885;SDS011;2457;51.788;6.136;2023-04-01T21:25:27;3.57;;;1.67;;
4885;SDS011;2457;51.788;6.136;2023-04-01T21:35:54;4.50;;;1.93;;
4885;SDS011;2457;51.788;6.136;2023-04-01T21:40:50;3.63;;;1.50;;
4885;SDS011;2457;51.788;6.136;2023-04-01T21:48:36;3.33;;;1.43;;
4885;SDS011;2457;51.788;6.136;2023-04-01T21:51:06;3.70;;;1.63;;
4885;SDS011;2457;51.788;6.136;2023-04-01T22:04:23;3.63;;;1.33;;
4885;SDS011;2457;51.788;6.136;2023-04-01T22:12:10;3.70;;;1.50;;
4885;SDS011;2457;51.788;6.136;2023-04-01T22:14:47;4.93;;;1.30;;
4885;SDS011;2457;51.788;6.136;2023-04-01T22:17:17;4.13;;;1.50;;
4885;SDS011;2457;51.788;6.136;2023-04-01T22:27:31;5.93;;;1.50;;
4885;SDS011;2457;51.788;6.136;2023-04-01T22:32:50;3.40;;;1.30;;
4885;SDS011;2457;51.788;6.136;2023-04-01T22:38:18;3.53;;;1.57;;
4885;SDS011;2457;51.788;6.136;2023-04-01T22:40:47;4.07;;;1.77;;
4885;SDS011;2457;51.788;6.136;2023-04-01T22:43:21;3.80;;;1.40;;
4885;SDS011;2457;51.788;6.136;2023-04-01T22:45:59;4.13;;;2.00;;
4885;SDS011;2457;51.788;6.136;2023-04-01T22:51:03;3.80;;;1.70;;
4885;SDS011;2457;51.788;6.136;2023-04-01T22:56:26;3.47;;;1.57;;